Time;durP1;ratioP1;P1;durP2;ratioP2;P2;SDS_P1;SDS_P2;PMS_P1;PMS_P2;Temp;Humidity;BMP_temperature;BMP_pressure;BME280_temperature;BME280_humidity;BME280_pressure;Samples;Min_cycle;Max_cycle;Signal;HPM_P1;HPM_P2
2022/03/31 00:00:13;;;;;;;36.33;16.07;;;5.10;99.90;;;;;;5073363;28;20462;-71
2022/03/31 00:02:40;;;;;;;31.73;16.33;;;5.00;99.90;;;;;;5076302;28;20836;-71
2022/03/31 00:05:07;;;;;;;33.70;16.63;;;5.00;99.90;;;;;;5084885;28;20486;-71
2022/03/31 00:07:34;;;;;;;29.03;15.47;;;4.90;99.90;;;;;;5088895;28;20466;-71
2022/03/31 00:10:01;;;;;;;29.97;16.90;;;4.90;99.90;;;;;;5083993;28;20466;-71
2022/03/31 00:12:28;;;;;;;29.80;15.40;;;4.90;99.90;;;;;;5090759;28;20450;-71
2022/03/31 00:14:54;;;;;;;29.90;16.07;;;4.90;99.90;;;;;;5074592;28;20440;-71
2022/03/31 00:17:22;;;;;;;30.30;15.70;;;4.80;99.90;;;;;;5079195;28;20482;-71
2022/03/31 00:19:49;;;;;;;26.40;15.57;;;4.80;99.90;;;;;;5086972;28;20455;-71
2022/03/31 00:22:15;;;;;;;28.07;15.43;;;4.80;99.90;;;;;;5091613;28;20446;-71
2022/03/31 00:24:42;;;;;;;33.40;16.47;;;4.70;99.90;;;;;;5084781;28;21040;-71
2022/03/31 00:27:09;;;;;;;28.60;15.33;;;4.70;99.90;;;;;;5071552;28;20455;-71
2022/03/31 00:29:35;;;;;;;31.43;16.30;;;4.60;99.90;;;;;;5073071;28;20480;-71
2022/03/31 00:32:03;;;;;;;31.60;16.10;;;4.50;99.90;;;;;;5085332;28;20500;-71
2022/03/31 00:34:31;;;;;;;32.03;15.60;;;4.50;99.90;;;;;;5086311;28;20843;-71
2022/03/31 00:36:58;;;;;;;28.73;15.53;;;4.40;99.90;;;;;;5085070;28;20532;-71
2022/03/31 00:39:32;;;;;;;30.23;16.00;;;4.40;99.90;;;;;;5090725;28;20447;-71
2022/03/31 00:41:59;;;;;;;27.93;15.43;;;4.40;99.90;;;;;;5074153;28;20483;-71
2022/03/31 00:44:25;;;;;;;32.93;16.60;;;4.40;99.90;;;;;;5071089;28;21062;-71
2022/03/31 00:46:54;;;;;;;29.57;14.37;;;4.40;99.90;;;;;;5089813;28;20958;-71
2022/03/31 00:49:22;;;;;;;27.47;15.10;;;4.40;99.90;;;;;;5091139;28;21176;-71
2022/03/31 00:51:52;;;;;;;31.30;17.33;;;4.30;99.90;;;;;;5075376;28;20992;-71
2022/03/31 00:54:20;;;;;;;29.77;16.30;;;4.30;99.90;;;;;;5073168;28;20454;-71
2022/03/31 00:56:49;;;;;;;34.47;16.77;;;4.20;99.90;;;;;;5075898;28;20455;-72
2022/03/31 00:59:17;;;;;;;31.87;16.23;;;4.20;99.90;;;;;;5071639;28;20467;-71
2022/03/31 01:01:45;;;;;;;34.57;16.40;;;4.10;99.90;;;;;;5090953;28;20462;-71
2022/03/31 01:04:13;;;;;;;33.50;16.93;;;4.10;99.90;;;;;;5086138;28;20482;-71
2022/03/31 01:06:43;;;;;;;37.60;16.47;;;4.10;99.90;;;;;;5076536;28;20529;-71
2022/03/31 01:09:12;;;;;;;30.60;16.23;;;4.10;99.90;;;;;;5079625;28;20479;-71
2022/03/31 01:11:39;;;;;;;32.57;16.77;;;4.10;99.90;;;;;;5071564;28;20448;-71
2022/03/31 01:14:07;;;;;;;28.37;15.37;;;4.00;99.90;;;;;;5084474;28;20455;-71
2022/03/31 01:16:34;;;;;;;31.00;14.97;;;4.00;99.90;;;;;;5089774;28;20858;-71
2022/03/31 01:19:04;;;;;;;29.80;16.10;;;4.00;99.90;;;;;;5089742;28;21048;-71
2022/03/31 01:21:31;;;;;;;31.53;16.80;;;4.00;99.90;;;;;;5090984;28;20453;-71
2022/03/31 01:23:59;;;;;;;33.30;16.80;;;4.10;99.90;;;;;;5072744;28;20895;-71
2022/03/31 01:26:26;;;;;;;29.53;15.03;;;4.10;99.90;;;;;;5085318;28;21011;-71
2022/03/31 01:28:52;;;;;;;32.83;16.27;;;4.10;99.90;;;;;;5082040;28;20525;-71
2022/03/31 01:31:20;;;;;;;28.93;16.03;;;4.10;99.90;;;;;;5080682;28;20454;-71
2022/03/31 01:33:46;;;;;;;33.97;16.40;;;4.10;99.90;;;;;;5083413;28;20540;-71
2022/03/31 01:36:13;;;;;;;31.67;15.90;;;4.00;99.90;;;;;;5071536;28;20447;-71
2022/03/31 01:38:40;;;;;;;38.77;17.00;;;4.00;99.90;;;;;;5075230;28;21055;-71
2022/03/31 01:41:08;;;;;;;32.60;17.70;;;4.00;99.90;;;;;;5080981;28;20856;-71
2022/03/31 01:43:35;;;;;;;31.37;16.70;;;4.00;99.90;;;;;;5070644;28;20935;-71
2022/03/31 01:46:02;;;;;;;38.20;18.13;;;4.00;99.90;;;;;;5071460;28;20540;-71
2022/03/31 01:48:29;;;;;;;31.33;16.37;;;4.10;99.90;;;;;;5070153;28;20471;-71
2022/03/31 01:50:57;;;;;;;30.43;15.67;;;4.10;99.90;;;;;;5088689;28;20461;-71
2022/03/31 01:53:23;;;;;;;35.13;17.57;;;4.10;99.90;;;;;;5089570;28;20455;-71
2022/03/31 01:55:50;;;;;;;34.23;16.80;;;4.20;99.90;;;;;;5075943;28;20497;-71
2022/03/31 01:58:18;;;;;;;32.10;17.70;;;4.20;99.90;;;;;;5082411;28;20539;-71
2022/03/31 02:00:45;;;;;;;32.40;16.80;;;4.20;99.90;;;;;;5089717;28;20458;-72
2022/03/31 02:03:11;;;;;;;32.80;17.80;;;4.20;99.90;;;;;;5084968;28;20463;-71
2022/03/31 02:05:38;;;;;;;29.83;15.53;;;4.30;99.90;;;;;;5086756;28;20557;-71
2022/03/31 02:08:05;;;;;;;29.70;15.70;;;4.30;99.90;;;;;;5090033;28;20885;-71
2022/03/31 02:10:32;;;;;;;37.10;17.17;;;4.40;99.90;;;;;;5084766;28;20848;-71
2022/03/31 02:12:59;;;;;;;29.97;15.90;;;4.30;99.90;;;;;;5070117;28;20798;-71
2022/03/31 02:15:29;;;;;;;32.17;17.07;;;4.30;99.90;;;;;;5083662;28;20443;-71
2022/03/31 02:17:57;;;;;;;35.63;17.57;;;4.30;99.90;;;;;;5077688;28;20844;-71
2022/03/31 02:20:26;;;;;;;31.10;17.43;;;4.20;99.90;;;;;;5073526;28;20447;-71
2022/03/31 02:22:52;;;;;;;27.80;16.00;;;4.20;99.90;;;;;;5073522;28;20463;-71
2022/03/31 02:25:20;;;;;;;33.20;16.90;;;4.10;99.90;;;;;;5073606;28;20580;-71
2022/03/31 02:27:52;;;;;;;33.20;16.63;;;4.10;99.90;;;;;;5087631;28;20474;-71
2022/03/31 02:30:19;;;;;;;31.20;16.27;;;4.00;99.90;;;;;;5092213;28;20447;-71
2022/03/31 02:32:47;;;;;;;29.57;15.97;;;4.00;99.90;;;;;;5092617;28;20459;-71
2022/03/31 02:35:14;;;;;;;31.80;16.43;;;4.00;99.90;;;;;;5083885;28;20452;-71
2022/03/31 02:37:40;;;;;;;26.00;14.60;;;3.90;99.90;;;;;;5078621;28;20533;-71
2022/03/31 02:40:08;;;;;;;33.47;17.43;;;3.90;99.90;;;;;;5093514;28;20454;-71
2022/03/31 02:42:35;;;;;;;34.57;16.87;;;3.90;99.90;;;;;;5092109;28;20446;-71
2022/03/31 02:45:02;;;;;;;35.47;15.53;;;3.90;99.90;;;;;;5092282;28;21000;-71
2022/03/31 02:47:29;;;;;;;30.17;14.80;;;3.90;99.90;;;;;;5092765;28;20543;-71
2022/03/31 02:49:57;;;;;;;28.00;15.53;;;3.90;99.90;;;;;;5092819;28;20466;-71
2022/03/31 02:52:24;;;;;;;34.83;15.93;;;3.90;99.90;;;;;;5093320;28;21012;-71
2022/03/31 02:57:35;;;;;;;30.97;15.60;;;3.90;99.90;;;;;;5072974;28;20525;-71
2022/03/31 03:00:02;;;;;;;35.03;16.40;;;3.90;99.90;;;;;;5072815;28;20451;-71
2022/03/31 03:02:28;;;;;;;36.27;16.10;;;3.90;99.90;;;;;;5072589;28;20463;-71
2022/03/31 03:04:57;;;;;;;30.70;16.10;;;3.80;99.90;;;;;;5084146;28;20482;-71
2022/03/31 03:07:23;;;;;;;35.63;16.03;;;3.80;99.90;;;;;;5092555;28;21080;-71
2022/03/31 03:09:50;;;;;;;31.07;16.00;;;3.80;99.90;;;;;;5092191;28;20991;-72
2022/03/31 03:12:17;;;;;;;35.00;16.40;;;3.80;99.90;;;;;;5074579;28;20521;-72
2022/03/31 03:14:43;;;;;;;29.30;15.60;;;3.80;99.90;;;;;;5081183;28;20724;-72
2022/03/31 03:17:11;;;;;;;29.10;15.87;;;3.80;99.90;;;;;;5092385;28;20517;-72
2022/03/31 03:19:38;;;;;;;31.77;16.07;;;3.80;99.90;;;;;;5092554;28;20546;-71
2022/03/31 03:22:06;;;;;;;34.17;16.37;;;3.80;99.90;;;;;;5092186;28;20587;-71
2022/03/31 03:24:32;;;;;;;31.10;16.30;;;3.80;99.90;;;;;;5084822;28;20638;-71
2022/03/31 03:26:59;;;;;;;31.70;15.73;;;3.80;99.90;;;;;;5071481;28;20952;-72
2022/03/31 03:29:26;;;;;;;29.90;15.80;;;3.90;99.90;;;;;;5073241;28;20447;-72
2022/03/31 03:31:52;;;;;;;29.47;15.33;;;3.90;99.90;;;;;;5073065;28;20462;-72
2022/03/31 03:34:19;;;;;;;31.40;16.40;;;3.90;99.90;;;;;;5076217;28;20461;-72
2022/03/31 03:36:46;;;;;;;34.23;15.27;;;3.90;99.90;;;;;;5083864;28;20444;-72
2022/03/31 03:39:14;;;;;;;31.83;15.50;;;3.90;99.90;;;;;;5072062;28;20521;-72
2022/03/31 03:41:41;;;;;;;30.83;16.67;;;3.90;99.90;;;;;;5072013;28;20460;-72
2022/03/31 03:44:08;;;;;;;30.20;16.70;;;3.90;99.90;;;;;;5074441;28;20452;-72
2022/03/31 03:46:35;;;;;;;31.40;16.87;;;3.90;99.90;;;;;;5084628;28;20487;-72
2022/03/31 03:49:02;;;;;;;32.53;16.60;;;3.90;99.90;;;;;;5081035;28;20485;-72
2022/03/31 03:51:29;;;;;;;35.53;16.30;;;3.80;99.90;;;;;;5072214;28;20550;-72
2022/03/31 03:53:56;;;;;;;35.83;16.27;;;3.80;99.90;;;;;;5092013;28;20450;-72
2022/03/31 03:56:24;;;;;;;32.83;16.70;;;3.80;99.90;;;;;;5091120;28;20589;-72
2022/03/31 03:58:51;;;;;;;31.57;15.80;;;3.80;99.90;;;;;;5091989;28;21027;-72
2022/03/31 04:01:19;;;;;;;29.97;16.60;;;3.80;99.90;;;;;;5090129;28;20450;-72
2022/03/31 04:03:46;;;;;;;26.17;15.30;;;3.80;99.90;;;;;;5088700;28;20547;-72
2022/03/31 04:06:12;;;;;;;34.47;17.27;;;3.70;99.90;;;;;;5090659;28;20508;-72
2022/03/31 04:08:39;;;;;;;34.80;16.23;;;3.70;99.90;;;;;;5090900;28;20482;-72
2022/03/31 04:11:06;;;;;;;38.83;17.00;;;3.70;99.90;;;;;;5090971;28;20508;-72
2022/03/31 04:13:34;;;;;;;31.10;17.70;;;3.60;99.90;;;;;;5091215;28;20952;-72
2022/03/31 04:16:01;;;;;;;34.83;17.53;;;3.50;99.90;;;;;;5083167;28;20952;-72
2022/03/31 04:18:27;;;;;;;31.20;17.80;;;3.50;99.90;;;;;;5089043;28;20998;-72
2022/03/31 04:20:54;;;;;;;36.43;19.00;;;3.40;99.90;;;;;;5091657;28;20564;-72
2022/03/31 04:23:21;;;;;;;39.57;18.70;;;3.40;99.90;;;;;;5086751;28;20513;-72
2022/03/31 04:25:47;;;;;;;37.60;18.23;;;3.30;99.90;;;;;;5076616;28;20506;-72
2022/03/31 04:28:14;;;;;;;37.87;18.03;;;3.30;99.90;;;;;;5082470;28;20471;-72
2022/03/31 04:30:42;;;;;;;38.80;17.00;;;3.20;99.90;;;;;;5090261;28;20443;-72
2022/03/31 04:33:09;;;;;;;33.77;16.50;;;3.00;99.90;;;;;;5088137;28;20500;-72
2022/03/31 04:35:36;;;;;;;32.10;16.80;;;3.00;99.90;;;;;;5071306;28;20451;-72
2022/03/31 04:38:03;;;;;;;37.30;17.40;;;2.90;99.90;;;;;;5071126;28;20525;-72
2022/03/31 04:40:30;;;;;;;34.30;16.63;;;2.90;99.90;;;;;;5071381;28;20452;-72
2022/03/31 04:42:56;;;;;;;31.93;16.27;;;2.80;99.90;;;;;;5070717;28;20505;-72
2022/03/31 04:45:23;;;;;;;40.17;18.70;;;2.80;99.90;;;;;;5090649;28;20478;-72
2022/03/31 04:47:51;;;;;;;39.30;17.80;;;2.80;99.90;;;;;;5090548;28;20466;-72
2022/03/31 04:50:18;;;;;;;33.33;17.70;;;2.80;99.90;;;;;;5078798;28;20452;-72
2022/03/31 04:52:45;;;;;;;34.80;17.77;;;2.70;99.90;;;;;;5083443;28;20512;-72
2022/03/31 04:55:11;;;;;;;39.87;18.80;;;2.70;99.90;;;;;;5079733;28;20447;-72
2022/03/31 04:57:38;;;;;;;44.80;17.53;;;2.70;99.90;;;;;;5083935;28;20497;-72
2022/03/31 05:00:07;;;;;;;39.20;18.30;;;2.70;99.90;;;;;;5080194;28;20462;-72
2022/03/31 05:02:33;;;;;;;43.47;19.03;;;2.70;99.90;;;;;;5073583;28;20459;-72
2022/03/31 05:05:01;;;;;;;36.40;17.97;;;2.70;99.90;;;;;;5081298;28;20500;-72
2022/03/31 05:07:29;;;;;;;36.40;18.00;;;2.70;99.90;;;;;;5070430;28;20532;-72
2022/03/31 05:09:56;;;;;;;41.67;18.53;;;2.60;99.90;;;;;;5075337;28;20447;-72
2022/03/31 05:12:22;;;;;;;36.20;17.97;;;2.60;99.90;;;;;;5080698;28;20452;-73
2022/03/31 05:14:49;;;;;;;36.80;18.10;;;2.60;99.90;;;;;;5070367;28;20447;-72
2022/03/31 05:17:15;;;;;;;42.03;20.43;;;2.60;99.90;;;;;;5074583;28;20509;-72
2022/03/31 05:19:42;;;;;;;38.00;18.10;;;2.60;99.90;;;;;;5080385;28;20987;-72
2022/03/31 05:22:10;;;;;;;41.63;18.83;;;2.60;99.90;;;;;;5077841;28;20509;-72
2022/03/31 05:24:37;;;;;;;49.53;18.90;;;2.60;99.90;;;;;;5074939;28;21005;-72
2022/03/31 05:27:04;;;;;;;43.63;19.30;;;2.60;99.90;;;;;;5083783;28;20490;-72
2022/03/31 05:29:31;;;;;;;37.30;18.63;;;2.60;99.90;;;;;;5080001;28;20466;-72
2022/03/31 05:31:59;;;;;;;42.40;20.23;;;2.60;99.90;;;;;;5089897;28;20499;-72
2022/03/31 05:34:26;;;;;;;44.07;20.80;;;2.60;99.90;;;;;;5084501;28;20450;-72
2022/03/31 05:36:53;;;;;;;40.30;19.13;;;2.60;99.90;;;;;;5073782;28;20485;-71
2022/03/31 05:39:21;;;;;;;42.83;20.03;;;2.60;99.90;;;;;;5077418;28;20471;-72
2022/03/31 05:41:48;;;;;;;45.80;20.63;;;2.60;99.90;;;;;;5070647;28;20542;-72
2022/03/31 05:44:14;;;;;;;51.90;22.10;;;2.70;99.90;;;;;;5077566;28;20446;-72
2022/03/31 05:46:42;;;;;;;52.30;24.17;;;2.70;99.90;;;;;;5078829;28;21081;-72
2022/03/31 05:49:09;;;;;;;42.93;20.33;;;2.80;99.90;;;;;;5084804;28;20485;-71
2022/03/31 05:51:35;;;;;;;39.93;20.47;;;3.00;99.90;;;;;;5089961;28;20472;-72
2022/03/31 05:54:03;;;;;;;48.50;21.33;;;3.10;99.90;;;;;;5087316;28;20515;-72
2022/03/31 05:56:32;;;;;;;49.90;21.27;;;3.20;99.90;;;;;;5077828;28;20455;-72
2022/03/31 05:58:58;;;;;;;42.60;20.03;;;3.30;99.90;;;;;;5076896;28;20546;-72
2022/03/31 06:01:25;;;;;;;53.17;21.50;;;3.40;99.90;;;;;;5094506;28;20458;-71
2022/03/31 06:03:52;;;;;;;43.33;21.50;;;3.50;99.90;;;;;;5090656;28;20452;-71
2022/03/31 06:06:19;;;;;;;41.30;20.40;;;3.60;99.90;;;;;;5084872;28;20576;-71
2022/03/31 06:08:45;;;;;;;46.17;21.37;;;3.70;99.90;;;;;;5089197;28;20533;-71
2022/03/31 06:11:12;;;;;;;46.17;22.33;;;3.80;99.90;;;;;;5081485;28;20504;-71
2022/03/31 06:13:40;;;;;;;44.40;22.47;;;3.90;99.90;;;;;;5076750;28;20456;-71
2022/03/31 06:16:07;;;;;;;45.83;20.10;;;4.00;99.90;;;;;;5078666;28;20462;-72
2022/03/31 06:18:34;;;;;;;43.43;22.30;;;4.20;99.90;;;;;;5083078;28;20470;-71
2022/03/31 06:21:01;;;;;;;45.30;22.60;;;4.50;99.90;;;;;;5087767;28;20549;-71
2022/03/31 06:23:28;;;;;;;42.60;20.63;;;4.70;99.90;;;;;;5079814;28;20454;-72
2022/03/31 06:25:55;;;;;;;40.03;20.53;;;4.80;99.90;;;;;;5081189;28;20497;-72
2022/03/31 06:28:21;;;;;;;46.83;21.83;;;4.90;99.90;;;;;;5090048;28;20528;-73
2022/03/31 06:30:50;;;;;;;45.03;21.10;;;5.00;99.90;;;;;;5085673;28;20450;-72
2022/03/31 06:33:16;;;;;;;45.90;21.97;;;5.00;99.90;;;;;;5089331;28;20516;-72
2022/03/31 06:35:43;;;;;;;44.20;21.33;;;5.00;99.90;;;;;;5093498;28;20998;-72
2022/03/31 06:38:11;;;;;;;41.60;21.07;;;5.00;99.90;;;;;;5078134;28;20479;-72
2022/03/31 06:40:39;;;;;;;42.37;21.47;;;4.90;99.90;;;;;;5073203;28;20459;-72
2022/03/31 06:43:06;;;;;;;44.03;19.90;;;4.80;99.90;;;;;;5081781;28;20532;-72
2022/03/31 06:45:34;;;;;;;43.67;21.07;;;4.80;99.90;;;;;;5084988;28;20451;-72
2022/03/31 06:48:04;;;;;;;40.53;20.77;;;4.80;99.90;;;;;;5086651;28;20471;-72
2022/03/31 06:50:32;;;;;;;45.07;21.53;;;4.80;99.90;;;;;;5077117;28;20454;-72
2022/03/31 06:52:59;;;;;;;40.57;22.47;;;4.70;99.90;;;;;;5088748;28;20489;-72
2022/03/31 06:55:26;;;;;;;46.90;22.90;;;4.80;99.90;;;;;;5093467;28;20445;-72
2022/03/31 06:57:53;;;;;;;47.10;22.90;;;4.90;99.90;;;;;;5081718;28;20474;-72
2022/03/31 07:00:20;;;;;;;43.10;22.00;;;5.00;99.90;;;;;;5081197;28;20568;-72
2022/03/31 07:02:47;;;;;;;38.33;21.10;;;5.10;99.90;;;;;;5087930;28;20543;-72
2022/03/31 07:05:15;;;;;;;43.27;23.10;;;5.10;99.90;;;;;;5087342;28;20454;-72
2022/03/31 07:07:42;;;;;;;47.37;22.73;;;5.10;99.90;;;;;;5076919;28;20487;-73
2022/03/31 07:10:09;;;;;;;42.93;23.00;;;5.10;99.90;;;;;;5076595;28;20863;-72
2022/03/31 07:12:37;;;;;;;40.03;21.13;;;5.10;99.90;;;;;;5085718;28;20466;-71
2022/03/31 07:15:05;;;;;;;42.37;21.00;;;5.10;99.90;;;;;;5083507;28;20454;-71
2022/03/31 07:17:32;;;;;;;51.60;22.23;;;5.10;99.90;;;;;;5092085;28;20474;-71
2022/03/31 07:19:58;;;;;;;48.67;22.30;;;5.10;99.90;;;;;;5089622;28;20475;-71
2022/03/31 07:22:26;;;;;;;42.70;21.33;;;5.20;99.90;;;;;;5075121;28;20456;-71
2022/03/31 07:24:53;;;;;;;52.90;21.50;;;5.10;99.90;;;;;;5087304;28;20508;-72
2022/03/31 07:27:20;;;;;;;43.67;21.57;;;5.20;99.90;;;;;;5077116;28;20495;-72
2022/03/31 07:29:47;;;;;;;39.30;21.77;;;5.20;99.90;;;;;;5082645;28;21230;-71
2022/03/31 07:32:13;;;;;;;44.43;21.60;;;5.20;99.90;;;;;;5072753;28;20589;-71
2022/03/31 07:34:40;;;;;;;44.70;22.67;;;5.20;99.90;;;;;;5088021;28;20563;-71
2022/03/31 07:37:07;;;;;;;44.47;22.70;;;5.30;99.90;;;;;;5072444;28;20873;-71
2022/03/31 07:39:35;;;;;;;40.93;21.20;;;5.30;99.90;;;;;;5076679;28;20448;-71
2022/03/31 07:42:02;;;;;;;43.50;22.97;;;5.40;99.90;;;;;;5072119;28;20462;-71
2022/03/31 07:44:29;;;;;;;41.43;22.50;;;5.50;99.90;;;;;;5074985;28;20520;-72
2022/03/31 07:46:56;;;;;;;39.40;21.07;;;5.60;99.90;;;;;;5071840;28;20868;-72
2022/03/31 07:49:23;;;;;;;42.40;22.30;;;5.70;99.90;;;;;;5087616;28;20516;-72
2022/03/31 07:51:50;;;;;;;42.33;22.00;;;5.80;99.90;;;;;;5081346;28;20461;-71
2022/03/31 07:54:16;;;;;;;42.50;22.40;;;5.90;99.90;;;;;;5089307;28;20537;-72
2022/03/31 07:56:44;;;;;;;41.90;21.30;;;5.90;99.90;;;;;;5079952;28;20447;-72
2022/03/31 07:59:11;;;;;;;50.30;23.63;;;6.00;99.90;;;;;;5077783;28;20474;-72
2022/03/31 08:01:38;;;;;;;43.00;20.70;;;6.10;99.90;;;;;;5091127;28;20508;-72
2022/03/31 08:04:06;;;;;;;34.47;19.27;;;6.20;99.90;;;;;;5086906;28;20558;-72
2022/03/31 08:06:33;;;;;;;38.23;20.33;;;6.30;99.90;;;;;;5088896;28;20478;-71
2022/03/31 08:09:00;;;;;;;39.53;20.37;;;6.30;99.90;;;;;;5080593;28;21001;-72
2022/03/31 08:11:26;;;;;;;40.13;21.10;;;6.40;99.90;;;;;;5080019;28;20508;-71
2022/03/31 08:13:55;;;;;;;35.63;20.00;;;6.30;99.90;;;;;;5084127;28;20508;-72
2022/03/31 08:16:22;;;;;;;43.53;21.30;;;6.30;99.90;;;;;;5089947;28;20947;-71
2022/03/31 08:18:49;;;;;;;33.63;19.60;;;6.20;99.90;;;;;;5089446;28;20840;-72
2022/03/31 08:21:17;;;;;;;46.63;23.00;;;6.20;99.90;;;;;;5088997;28;20817;-72
2022/03/31 08:23:43;;;;;;;40.27;21.37;;;6.20;99.90;;;;;;5089585;28;20454;-72
2022/03/31 08:26:10;;;;;;;36.47;20.70;;;6.20;99.90;;;;;;5075225;28;21017;-71
2022/03/31 08:28:37;;;;;;;39.83;20.93;;;6.20;99.90;;;;;;5069996;28;20471;-71
2022/03/31 08:31:06;;;;;;;34.47;19.67;;;6.30;99.90;;;;;;5081871;28;20490;-71
2022/03/31 08:33:32;;;;;;;47.90;22.27;;;6.30;99.90;;;;;;5081687;28;20451;-71
2022/03/31 08:35:59;;;;;;;38.00;22.10;;;6.30;99.90;;;;;;5074810;28;20463;-71
2022/03/31 08:38:26;;;;;;;33.53;18.70;;;6.20;99.90;;;;;;5082024;28;20477;-71
2022/03/31 08:40:56;;;;;;;38.93;20.00;;;6.20;99.90;;;;;;5085026;28;20504;-71
2022/03/31 08:43:26;;;;;;;43.93;21.73;;;6.20;99.90;;;;;;5072903;28;20455;-71
2022/03/31 08:45:55;;;;;;;37.10;21.00;;;6.10;99.90;;;;;;5085753;28;20494;-71
2022/03/31 08:48:25;;;;;;;55.77;26.97;;;6.20;99.90;;;;;;5087758;28;20473;-71
2022/03/31 08:50:51;;;;;;;35.07;19.43;;;6.20;99.90;;;;;;5091275;28;20442;-71
2022/03/31 08:53:18;;;;;;;47.70;26.30;;;6.20;99.90;;;;;;5088475;28;20970;-71
2022/03/31 08:55:45;;;;;;;58.67;30.17;;;6.30;99.90;;;;;;5072305;28;20447;-71
2022/03/31 08:58:12;;;;;;;44.73;24.97;;;6.30;99.90;;;;;;5090306;28;20459;-71
2022/03/31 09:00:41;;;;;;;36.53;20.73;;;6.40;99.90;;;;;;5077540;28;20889;-71
2022/03/31 09:03:08;;;;;;;33.43;19.77;;;6.40;99.90;;;;;;5090598;28;20490;-71
2022/03/31 09:05:41;;;;;;;37.23;20.13;;;6.50;99.90;;;;;;5089657;28;20448;-71
2022/03/31 09:08:11;;;;;;;38.03;20.37;;;6.50;99.90;;;;;;5081199;28;21048;-71
2022/03/31 09:10:41;;;;;;;35.73;18.70;;;6.60;99.90;;;;;;5073282;28;20987;-71
2022/03/31 09:13:19;;;;;;;35.83;19.33;;;6.60;99.90;;;;;;5090030;28;20455;-71
2022/03/31 09:15:51;;;;;;;31.37;18.23;;;6.70;99.90;;;;;;5074851;28;20447;-71
2022/03/31 09:18:20;;;;;;;31.73;18.73;;;6.70;99.90;;;;;;5074723;28;20851;-72
2022/03/31 09:20:50;;;;;;;37.53;18.97;;;6.80;99.90;;;;;;5072825;28;20464;-71
2022/03/31 09:23:17;;;;;;;37.80;18.73;;;6.80;99.90;;;;;;5080707;28;20447;-72
2022/03/31 09:25:44;;;;;;;35.40;19.87;;;6.80;99.90;;;;;;5079175;28;20459;-71
2022/03/31 09:28:16;;;;;;;38.43;19.60;;;6.90;99.90;;;;;;5070342;28;20498;-72
2022/03/31 09:30:51;;;;;;;36.97;20.43;;;7.00;99.90;;;;;;5074568;28;20474;-72
2022/03/31 09:33:29;;;;;;;36.83;20.10;;;7.00;99.90;;;;;;5087461;28;20466;-72
2022/03/31 09:36:03;;;;;;;38.17;21.03;;;7.10;99.90;;;;;;5081287;28;21127;-72
2022/03/31 09:38:32;;;;;;;34.87;19.60;;;7.20;99.90;;;;;;5075006;28;20528;-73
2022/03/31 09:41:01;;;;;;;39.87;21.13;;;7.20;99.90;;;;;;5068883;28;20451;-72
2022/03/31 09:43:37;;;;;;;37.80;20.73;;;7.30;99.90;;;;;;5069130;28;20959;-72
2022/03/31 09:46:04;;;;;;;37.20;20.20;;;7.30;99.90;;;;;;5075003;28;20451;-72
2022/03/31 09:48:30;;;;;;;43.63;22.67;;;7.40;99.90;;;;;;5070367;28;20483;-73
2022/03/31 09:50:57;;;;;;;39.00;21.10;;;7.40;99.90;;;;;;5082186;28;20508;-73
2022/03/31 09:53:30;;;;;;;38.40;21.80;;;7.40;99.90;;;;;;5085435;28;20451;-71
2022/03/31 09:55:57;;;;;;;35.90;19.80;;;7.50;99.90;;;;;;5081166;28;20459;-71
2022/03/31 09:58:25;;;;;;;33.40;19.67;;;7.50;99.90;;;;;;5088977;28;21012;-71
2022/03/31 10:00:52;;;;;;;32.73;19.23;;;7.60;99.90;;;;;;5079706;28;20467;-70
2022/03/31 10:03:19;;;;;;;40.73;21.50;;;7.60;99.90;;;;;;5085609;28;20753;-71
2022/03/31 10:05:47;;;;;;;39.70;21.63;;;7.70;99.90;;;;;;5082915;28;20471;-71
2022/03/31 10:08:14;;;;;;;35.33;20.80;;;7.70;99.90;;;;;;5079088;28;20472;-70
2022/03/31 10:10:43;;;;;;;36.47;20.23;;;7.80;99.90;;;;;;5048195;28;20485;-71
2022/03/31 10:13:16;;;;;;;35.80;19.97;;;7.90;99.90;;;;;;5040002;28;20457;-70
2022/03/31 10:15:45;;;;;;;33.10;19.17;;;7.90;99.90;;;;;;5040871;28;20891;-71
2022/03/31 10:18:14;;;;;;;35.10;19.07;;;7.70;99.90;;;;;;5031353;28;20469;-71
2022/03/31 10:20:52;;;;;;;33.90;19.83;;;7.70;99.90;;;;;;5029648;28;20463;-71
2022/03/31 10:26:05;;;;;;;41.77;19.97;;;7.90;99.90;;;;;;5031327;28;20495;-71
2022/03/31 10:28:32;;;;;;;35.10;20.40;;;7.90;99.90;;;;;;5049722;28;20496;-71
2022/03/31 10:31:01;;;;;;;44.10;22.70;;;8.00;99.90;;;;;;5043586;28;20902;-71
2022/03/31 10:33:30;;;;;;;35.77;20.70;;;8.10;99.90;;;;;;5048255;28;20456;-71
2022/03/31 10:36:12;;;;;;;34.87;18.40;;;8.20;99.90;;;;;;5050924;28;20877;-71
2022/03/31 10:38:51;;;;;;;33.37;18.93;;;8.20;99.90;;;;;;5050668;28;20502;-71
2022/03/31 10:41:20;;;;;;;34.77;18.97;;;8.10;99.90;;;;;;5052982;28;20874;-71
2022/03/31 10:43:48;;;;;;;33.60;18.63;;;8.00;99.90;;;;;;5038143;28;20508;-71
2022/03/31 10:46:17;;;;;;;34.10;19.30;;;8.00;99.90;;;;;;5042500;28;20483;-71
2022/03/31 10:48:51;;;;;;;32.10;17.80;;;8.00;99.90;;;;;;5034666;28;20844;-71
2022/03/31 10:51:18;;;;;;;32.77;18.40;;;8.10;99.90;;;;;;5050045;28;20452;-72
2022/03/31 10:53:49;;;;;;;25.90;16.47;;;8.10;99.90;;;;;;5032489;28;20457;-72
2022/03/31 10:56:19;;;;;;;33.67;17.40;;;8.00;99.90;;;;;;5051359;28;20463;-72
2022/03/31 10:58:47;;;;;;;30.73;16.87;;;8.10;99.90;;;;;;5049977;28;20495;-71
2022/03/31 11:01:14;;;;;;;29.40;17.67;;;8.10;99.90;;;;;;5042902;28;20479;-71
2022/03/31 11:03:41;;;;;;;40.97;22.70;;;8.10;99.90;;;;;;5039552;28;20488;-72
2022/03/31 11:06:09;;;;;;;33.63;18.27;;;8.20;99.90;;;;;;5053737;28;21260;-71
2022/03/31 11:08:43;;;;;;;30.47;17.40;;;8.30;99.90;;;;;;5040788;28;20499;-72
2022/03/31 11:11:20;;;;;;;35.37;17.40;;;8.20;99.90;;;;;;5035604;28;20457;-71
2022/03/31 11:13:47;;;;;;;30.97;16.80;;;8.20;99.90;;;;;;5045151;28;20457;-72
2022/03/31 11:16:15;;;;;;;29.27;15.57;;;8.20;99.90;;;;;;5037997;28;20832;-72
2022/03/31 11:18:42;;;;;;;35.57;18.10;;;8.20;99.90;;;;;;5051668;28;20519;-72
2022/03/31 11:21:09;;;;;;;30.23;17.00;;;8.20;99.90;;;;;;5035940;28;20458;-72
2022/03/31 11:23:46;;;;;;;33.80;18.38;;;8.20;99.90;;;;;;5043006;28;20445;-72
2022/03/31 11:26:16;;;;;;;29.57;17.70;;;8.20;99.90;;;;;;5035818;28;20225;-71
2022/03/31 11:28:45;;;;;;;28.50;17.03;;;8.20;99.90;;;;;;5045687;28;20553;-71
2022/03/31 11:31:13;;;;;;;34.72;18.98;;;8.20;99.90;;;;;;5043634;28;20452;-71
2022/03/31 11:33:40;;;;;;;31.88;19.63;;;8.20;99.90;;;;;;5040557;28;20457;-72
2022/03/31 11:36:07;;;;;;;28.48;17.50;;;8.20;99.90;;;;;;5036685;28;20445;-71
2022/03/31 11:38:33;;;;;;;31.07;16.93;;;8.20;99.90;;;;;;5034977;28;20222;-72
2022/03/31 11:41:00;;;;;;;32.27;18.33;;;8.20;99.90;;;;;;5036449;28;20452;-71
2022/03/31 11:43:27;;;;;;;31.90;16.57;;;8.20;99.90;;;;;;5043782;28;20444;-72
2022/03/31 11:45:56;;;;;;;31.47;16.87;;;8.10;99.90;;;;;;5036766;28;20453;-72
2022/03/31 11:48:24;;;;;;;31.10;17.30;;;8.00;99.90;;;;;;5037244;28;21203;-72
2022/03/31 11:50:54;;;;;;;29.40;16.17;;;7.90;99.90;;;;;;5042051;28;20811;-73
2022/03/31 11:53:25;;;;;;;32.17;16.43;;;8.00;99.90;;;;;;5036706;28;20467;-73
2022/03/31 11:55:59;;;;;;;32.00;17.10;;;8.00;99.90;;;;;;5042665;28;21180;-72
2022/03/31 11:58:26;;;;;;;33.70;16.50;;;8.00;99.90;;;;;;5038825;28;20479;-73
2022/03/31 12:00:55;;;;;;;29.20;15.97;;;7.90;99.90;;;;;;5040429;28;21023;-73
2022/03/31 12:03:21;;;;;;;30.43;17.10;;;7.90;99.90;;;;;;5037839;28;20656;-72
2022/03/31 12:05:56;;;;;;;30.90;16.90;;;7.90;99.90;;;;;;5042974;28;20840;-72
2022/03/31 12:08:24;;;;;;;31.07;17.83;;;7.90;99.90;;;;;;5038790;28;20498;-71
2022/03/31 12:10:52;;;;;;;31.03;17.33;;;7.80;99.90;;;;;;5040052;28;20537;-72
2022/03/31 12:13:19;;;;;;;32.90;16.97;;;7.90;99.90;;;;;;5032727;28;20512;-72
2022/03/31 12:15:46;;;;;;;32.70;17.27;;;7.90;99.90;;;;;;5033434;28;20453;-71
2022/03/31 12:18:16;;;;;;;29.70;16.33;;;7.90;99.90;;;;;;5031848;28;20476;-72
2022/03/31 12:20:46;;;;;;;28.50;16.47;;;8.00;99.90;;;;;;5038685;28;20453;-72
2022/03/31 12:23:21;;;;;;;30.73;15.63;;;8.00;99.90;;;;;;5036285;28;20584;-73
2022/03/31 12:25:49;;;;;;;27.57;15.60;;;8.00;99.90;;;;;;5041199;28;20494;-73
2022/03/31 12:28:18;;;;;;;29.57;16.63;;;8.00;99.90;;;;;;5038321;28;20477;-73
2022/03/31 12:30:47;;;;;;;26.30;15.37;;;7.90;99.90;;;;;;5052563;28;20507;-72
2022/03/31 12:33:24;;;;;;;35.03;17.03;;;7.90;99.90;;;;;;5036306;28;20456;-72
2022/03/31 12:36:01;;;;;;;39.50;23.10;;;7.90;99.90;;;;;;5031677;28;20539;-72
2022/03/31 12:38:40;;;;;;;31.73;18.80;;;7.90;99.90;;;;;;5035179;28;20580;-73
2022/03/31 12:41:16;;;;;;;43.87;25.20;;;7.90;99.90;;;;;;5042610;28;20456;-72
2022/03/31 12:43:43;;;;;;;44.83;25.57;;;7.90;99.90;;;;;;5037689;28;20486;-72